Time;durP1;ratioP1;P1;durP2;ratioP2;P2;SDS_P1;SDS_P2;PMS_P1;PMS_P2;Temp;Humidity;BMP_temperature;BMP_pressure;BME280_temperature;BME280_humidity;BME280_pressure;Samples;Min_cycle;Max_cycle;Signal;HPM_P1;HPM_P2
2022/09/28 00:03:45;;;;;;;10.02;4.88;;;;;;;7.77;100.00;97616.81;8397422;28;20082;-80
2022/09/28 00:07:46;;;;;;;13.02;4.53;;;;;;;7.73;100.00;97626.63;8395625;28;20045;-80
2022/09/28 00:11:47;;;;;;;14.98;5.10;;;;;;;7.71;100.00;97618.13;8395344;28;20040;-80
2022/09/28 00:16:07;;;;;;;12.38;5.15;;;;;;;7.67;100.00;97627.91;8395981;28;20048;-79
2022/09/28 00:20:09;;;;;;;10.15;4.93;;;;;;;7.61;100.00;97627.31;8396410;28;20547;-79
2022/09/28 00:24:13;;;;;;;8.65;4.95;;;;;;;7.61;100.00;97623.88;8394469;28;20086;-79
2022/09/28 00:28:14;;;;;;;11.52;5.15;;;;;;;7.63;100.00;97616.25;8376901;28;20052;-80
2022/09/28 00:32:15;;;;;;;10.23;5.53;;;;;;;7.64;100.00;97613.25;8376469;28;20060;-79
2022/09/28 00:36:16;;;;;;;12.68;5.53;;;;;;;7.62;100.00;97614.69;8394686;28;20415;-79
2022/09/28 00:40:17;;;;;;;13.25;6.20;;;;;;;7.62;100.00;97603.94;8395905;28;20102;-80
2022/09/28 00:44:21;;;;;;;10.77;5.82;;;;;;;7.60;100.00;97606.16;8392921;28;20098;-80
2022/09/28 00:48:23;;;;;;;16.17;6.18;;;;;;;7.56;100.00;97594.50;8395507;28;20044;-79
2022/09/28 00:52:30;;;;;;;11.05;6.50;;;;;;;7.48;100.00;97589.97;8391027;28;20135;-78
2022/09/28 00:56:33;;;;;;;11.82;6.22;;;;;;;7.45;100.00;97587.94;8395324;28;20040;-79
2022/09/28 01:00:34;;;;;;;17.50;6.82;;;;;;;7.42;100.00;97593.94;8394660;28;20088;-79
2022/09/28 01:04:36;;;;;;;11.93;6.25;;;;;;;7.39;100.00;97591.91;8395302;28;20043;-79
2022/09/28 01:08:38;;;;;;;10.63;5.97;;;;;;;7.29;100.00;97594.97;8393316;28;20064;-79
2022/09/28 01:12:39;;;;;;;12.10;7.25;;;;;;;7.18;100.00;97595.34;8394599;28;20568;-80
2022/09/28 01:17:13;;;;;;;12.95;6.90;;;;;;;7.14;100.00;97599.75;8394510;28;20127;-80
2022/09/28 01:21:20;;;;;;;13.63;6.50;;;;;;;7.11;100.00;97600.41;8391929;28;20053;-81
2022/09/28 01:25:49;;;;;;;11.32;6.18;;;;;;;7.10;100.00;97588.09;8391843;28;20056;-81
2022/09/28 01:30:03;;;;;;;12.80;6.32;;;;;;;7.10;100.00;97582.72;8392020;28;20040;-82
2022/09/28 01:34:28;;;;;;;10.80;6.25;;;;;;;7.10;100.00;97588.09;8393304;28;20057;-81
2022/09/28 01:38:37;;;;;;;11.82;5.85;;;;;;;7.05;100.00;97585.59;8393813;28;20455;-79
2022/09/28 01:42:38;;;;;;;13.10;6.97;;;;;;;7.04;100.00;97589.38;8393499;28;20486;-80
2022/09/28 01:46:43;;;;;;;11.55;6.13;;;;;;;7.05;100.00;97579.44;8402201;28;20044;-79
2022/09/28 01:50:46;;;;;;;14.65;5.97;;;;;;;7.05;100.00;97569.47;8392335;28;20041;-80
2022/09/28 01:54:52;;;;;;;12.27;6.38;;;;;;;7.01;100.00;97563.19;8392880;28;20044;-79
2022/09/28 01:59:09;;;;;;;16.30;6.38;;;;;;;6.98;100.00;97569.19;8393656;28;20119;-80
2022/09/28 02:03:15;;;;;;;12.95;6.03;;;;;;;6.92;100.00;97569.72;8392041;28;20052;-79
2022/09/28 02:07:44;;;;;;;12.85;6.35;;;;;;;6.90;100.00;97572.69;8392782;28;20048;-80
2022/09/28 02:11:50;;;;;;;15.30;6.40;;;;;;;6.85;100.00;97570.19;8391435;28;20602;-79
2022/09/28 02:16:04;;;;;;;13.15;5.93;;;;;;;6.78;100.00;97575.25;8391293;28;20049;-79
2022/09/28 02:20:06;;;;;;;11.82;6.30;;;;;;;6.76;100.00;97582.88;8391522;28;20057;-79
2022/09/28 02:24:12;;;;;;;12.25;6.32;;;;;;;6.72;100.00;97587.28;8391095;28;20045;-80
2022/09/28 02:28:14;;;;;;;10.35;5.55;;;;;;;6.64;100.00;97590.78;8391951;28;20055;-80
2022/09/28 02:32:16;;;;;;;19.73;6.43;;;;;;;6.62;100.00;97587.63;8393016;28;20422;-80
2022/09/28 02:36:17;;;;;;;9.65;5.55;;;;;;;6.58;100.00;97586.69;8396426;28;20131;-81
2022/09/28 02:40:28;;;;;;;13.25;6.15;;;;;;;6.52;100.00;97587.94;8395898;28;20055;-79
2022/09/28 02:44:50;;;;;;;11.73;5.93;;;;;;;6.51;100.00;97575.66;8399114;28;20048;-80
2022/09/28 02:49:02;;;;;;;10.82;6.88;;;;;;;6.49;100.00;97577.88;8398187;28;20048;-80
2022/09/28 02:53:15;;;;;;;11.55;6.45;;;;;;;6.47;100.00;97575.50;8397058;28;20405;-80
2022/09/28 02:57:31;;;;;;;11.20;6.85;;;;;;;6.52;100.00;97582.59;8398962;28;20063;-80
2022/09/28 03:01:50;;;;;;;20.17;7.13;;;;;;;6.59;100.00;97588.25;8397516;28;20382;-80
2022/09/28 03:06:02;;;;;;;12.48;8.35;;;;;;;6.71;100.00;97591.09;8359794;28;20055;-80
2022/09/28 03:10:15;;;;;;;15.20;8.20;;;;;;;6.82;100.00;97592.28;8343420;28;20098;-80
2022/09/28 03:14:16;;;;;;;17.45;9.23;;;;;;;6.95;100.00;97585.94;8359880;28;20068;-80
2022/09/28 03:18:17;;;;;;;18.83;9.27;;;;;;;7.05;100.00;97590.94;8344399;28;20037;-80
2022/09/28 03:22:18;;;;;;;17.38;9.30;;;;;;;7.11;100.00;97595.03;8360866;28;20463;-80
2022/09/28 03:26:19;;;;;;;18.98;10.18;;;;;;;7.19;100.00;97591.50;8340399;28;20131;-79
2022/09/28 03:30:21;;;;;;;21.70;11.25;;;;;;;7.30;100.00;97585.78;8340708;28;20231;-80
2022/09/28 03:34:22;;;;;;;32.45;12.60;;;;;;;7.36;100.00;97584.47;8356787;28;20111;-80
2022/09/28 03:38:23;;;;;;;23.42;12.30;;;;;;;7.43;100.00;97595.50;8398790;28;20048;-80
2022/09/28 03:42:27;;;;;;;24.35;13.40;;;;;;;7.45;100.00;97587.94;8394712;28;20040;-80
2022/09/28 03:46:27;;;;;;;23.90;12.45;;;;;;;7.50;100.00;97585.06;8395200;28;20151;-79
2022/09/28 03:50:28;;;;;;;25.00;12.27;;;;;;;7.52;100.00;97582.81;8398835;28;20099;-81
2022/09/28 03:54:29;;;;;;;20.65;12.75;;;;;;;7.53;100.00;97584.41;8398854;28;20099;-79
2022/09/28 03:58:30;;;;;;;21.38;12.60;;;;;;;7.56;100.00;97581.06;8401103;28;20048;-79
2022/09/28 04:02:33;;;;;;;19.65;12.02;;;;;;;7.59;100.00;97577.72;8362818;28;20048;-79
2022/09/28 04:06:34;;;;;;;18.10;11.52;;;;;;;7.62;100.00;97577.84;8412990;28;20043;-80
2022/09/28 04:10:35;;;;;;;19.50;11.98;;;;;;;7.66;100.00;97577.22;8416173;28;20770;-81
2022/09/28 04:14:36;;;;;;;16.38;11.35;;;;;;;7.67;100.00;97579.56;8431930;28;20131;-80
2022/09/28 04:18:38;;;;;;;17.05;11.95;;;;;;;7.69;100.00;97577.34;8414780;28;20159;-81
2022/09/28 04:22:39;;;;;;;19.75;11.63;;;;;;;7.72;100.00;97576.69;8387915;28;20052;-81
2022/09/28 04:26:40;;;;;;;20.67;12.27;;;;;;;7.74;100.00;97574.47;8397710;28;20543;-81
2022/09/28 04:30:41;;;;;;;19.83;12.18;;;;;;;7.75;100.00;97567.97;8410630;28;20056;-80
2022/09/28 04:34:42;;;;;;;21.67;12.05;;;;;;;7.78;100.00;97580.75;8395288;28;20542;-81
2022/09/28 04:38:43;;;;;;;26.00;12.55;;;;;;;7.78;100.00;97575.38;8397581;28;20048;-80
2022/09/28 04:42:44;;;;;;;18.80;11.45;;;;;;;7.77;100.00;97573.81;8398854;28;20385;-81
2022/09/28 04:46:45;;;;;;;19.52;11.32;;;;;;;7.73;100.00;97578.25;8408920;28;20055;-80
2022/09/28 04:50:52;;;;;;;18.92;11.80;;;;;;;7.72;100.00;97571.31;8396919;28;20458;-80
2022/09/28 04:54:53;;;;;;;19.75;11.90;;;;;;;7.73;100.00;97583.63;8396947;28;20432;-80
2022/09/28 04:58:54;;;;;;;28.55;12.52;;;;;;;7.71;100.00;97575.13;8396658;28;20129;-80
2022/09/28 05:02:55;;;;;;;18.58;12.00;;;;;;;7.73;100.00;97572.88;8396579;28;20044;-81
2022/09/28 05:06:56;;;;;;;20.70;11.05;;;;;;;7.74;100.00;97563.72;8411424;28;20048;-81
2022/09/28 05:10:59;;;;;;;31.00;12.73;;;;;;;7.72;100.00;97565.94;8430393;28;20052;-80
2022/09/28 05:15:00;;;;;;;20.92;12.73;;;;;;;7.69;100.00;97571.97;8429623;28;20048;-80
2022/09/28 05:19:01;;;;;;;19.38;10.88;;;;;;;7.68;100.00;97565.00;8429925;28;20059;-80
2022/09/28 05:23:02;;;;;;;31.55;15.95;;;;;;;7.71;100.00;97564.38;8422757;28;20037;-81
2022/09/28 05:27:03;;;;;;;30.15;16.00;;;;;;;7.74;100.00;97563.72;8422605;28;20533;-80
2022/09/28 05:31:04;;;;;;;30.80;17.83;;;;;;;7.79;100.00;97555.44;8429156;28;20047;-81
2022/09/28 05:35:06;;;;;;;33.05;17.70;;;;;;;7.86;100.00;97555.72;8429039;28;20064;-80
2022/09/28 05:39:08;;;;;;;24.73;13.75;;;;;;;7.93;100.00;97565.97;8429025;28;20055;-81
2022/09/28 05:43:09;;;;;;;27.65;15.60;;;;;;;7.99;100.00;97570.78;8415057;28;20040;-81
2022/09/28 05:47:10;;;;;;;34.30;17.20;;;;;;;8.06;100.00;97560.28;8428823;28;20072;-81
2022/09/28 05:51:11;;;;;;;23.20;14.05;;;;;;;8.14;100.00;97555.97;8428900;28;20048;-80
2022/09/28 05:55:12;;;;;;;32.67;18.50;;;;;;;8.19;100.00;97552.28;8428829;28;20452;-81
2022/09/28 05:59:13;;;;;;;33.65;17.92;;;;;;;8.21;100.00;97550.03;8428733;28;20048;-80
2022/09/28 06:03:14;;;;;;;44.13;22.45;;;;;;;8.26;100.00;97557.91;8416349;28;20067;-81
2022/09/28 06:07:15;;;;;;;36.47;19.33;;;;;;;8.28;100.00;97551.09;8426504;28;20047;-81
2022/09/28 06:11:15;;;;;;;29.27;16.30;;;;;;;8.36;100.00;97554.81;8427386;28;20051;-80
2022/09/28 06:15:17;;;;;;;30.20;16.25;;;;;;;8.39;100.00;97546.91;8428230;28;20059;-81
2022/09/28 06:19:17;;;;;;;41.83;20.02;;;;;;;8.45;100.00;97555.56;8428389;28;20493;-82
2022/09/28 06:23:18;;;;;;;36.28;17.50;;;;;;;8.48;100.00;97544.09;8427989;28;20549;-81
2022/09/28 06:27:19;;;;;;;119.13;37.47;;;;;;;8.47;100.00;97547.91;8427914;28;20460;-82
2022/09/28 06:31:22;;;;;;;61.65;25.63;;;;;;;8.54;100.00;97545.47;8426699;28;20052;-82
2022/09/28 06:35:24;;;;;;;32.00;16.88;;;;;;;8.71;100.00;97553.38;8427769;28;20166;-80
2022/09/28 06:39:26;;;;;;;17.58;11.98;;;;;;;8.89;100.00;97554.72;8427583;28;20055;-81
2022/09/28 06:43:28;;;;;;;24.17;15.25;;;;;;;9.00;100.00;97548.91;8406400;28;20049;-82
2022/09/28 06:47:32;;;;;;;24.17;14.73;;;;;;;9.05;100.00;97546.78;8421073;28;20520;-81
2022/09/28 06:51:33;;;;;;;17.42;13.00;;;;;;;9.11;100.00;97556.22;8427728;28;20067;-81
2022/09/28 06:55:37;;;;;;;22.50;14.00;;;;;;;9.22;100.00;97556.53;8418220;28;20060;-80
2022/09/28 06:59:38;;;;;;;15.23;11.82;;;;;;;9.25;100.00;97555.88;8415905;28;20115;-80
2022/09/28 07:03:39;;;;;;;12.50;8.88;;;;;;;9.27;100.00;97548.25;8383091;28;20485;-80
2022/09/28 07:07:43;;;;;;;18.80;9.50;;;;;;;9.25;100.00;97535.09;8413215;28;20040;-80
2022/09/28 07:11:44;;;;;;;20.88;12.75;;;;;;;9.21;100.00;97546.88;8427457;28;20044;-79
2022/09/28 07:15:44;;;;;;;17.85;11.68;;;;;;;9.25;100.00;97545.13;8427157;28;20075;-80
2022/09/28 07:19:51;;;;;;;23.05;12.05;;;;;;;9.26;100.00;97535.88;8427695;28;20052;-80
2022/09/28 07:23:53;;;;;;;18.38;11.90;;;;;;;9.25;100.00;97528.94;8433397;28;20397;-80
2022/09/28 07:27:58;;;;;;;16.38;11.45;;;;;;;9.30;100.00;97532.22;8404699;28;20047;-79
2022/09/28 07:31:59;;;;;;;17.40;11.80;;;;;;;9.39;100.00;97524.00;8422185;28;20052;-81
2022/09/28 07:36:05;;;;;;;22.00;13.13;;;;;;;9.47;100.00;97520.38;8415299;28;20114;-80
2022/09/28 07:44:28;;;;;;;13.95;10.50;;;;;;;9.62;100.00;97533.13;8404016;28;20092;-80
2022/09/28 07:48:35;;;;;;;15.18;9.70;;;;;;;9.82;100.00;97533.34;8432171;28;20051;-80
2022/09/28 07:52:36;;;;;;;23.70;12.20;;;;;;;10.03;100.00;97531.25;8432394;28;20063;-79
2022/09/28 07:56:37;;;;;;;17.95;11.98;;;;;;;10.16;100.00;97524.69;8432042;28;20043;-79
2022/09/28 08:00:38;;;;;;;27.02;10.68;;;;;;;10.16;100.00;97528.19;8423098;28;20048;-80
2022/09/28 08:04:39;;;;;;;16.75;10.55;;;;;;;10.16;100.00;97530.09;8402487;28;20047;-81
2022/09/28 08:08:43;;;;;;;20.17;12.27;;;;;;;10.12;100.00;97529.19;8390786;28;20459;-80
2022/09/28 08:12:46;;;;;;;19.02;11.57;;;;;;;10.16;100.00;97527.38;8419048;28;20044;-79
2022/09/28 08:16:47;;;;;;;16.58;10.20;;;;;;;10.33;100.00;97524.41;8431597;28;20494;-79
2022/09/28 08:25:11;;;;;;;18.65;10.00;;;;;;;10.32;99.82;97516.63;8431110;28;20469;-79
2022/09/28 08:29:11;;;;;;;18.75;11.07;;;;;;;10.46;99.49;97517.81;8399861;28;20105;-83
2022/09/28 08:33:14;;;;;;;20.98;8.93;;;;;;;10.66;98.75;97520.63;8418122;28;20052;-79
2022/09/28 08:37:15;;;;;;;14.40;7.07;;;;;;;10.73;96.99;97512.72;8430961;28;20055;-81
2022/09/28 08:41:29;;;;;;;20.60;9.68;;;;;;;10.84;97.00;97521.88;8413594;28;20040;-80
2022/09/28 08:45:34;;;;;;;16.17;8.10;;;;;;;10.90;96.05;97520.44;8397272;28;20051;-80
2022/09/28 08:49:46;;;;;;;10.27;6.95;;;;;;;10.85;95.31;97513.41;8426057;28;20101;-80
2022/09/28 08:53:59;;;;;;;8.35;5.80;;;;;;;10.74;93.35;97516.94;8430394;28;20083;-81
2022/09/28 08:58:10;;;;;;;9.82;5.63;;;;;;;10.73;93.09;97515.41;8429104;28;20055;-81
2022/09/28 09:02:24;;;;;;;9.70;5.32;;;;;;;10.81;93.15;97500.94;8412358;28;20048;-81
2022/09/28 09:07:08;;;;;;;8.70;5.38;;;;;;;10.86;92.63;97497.97;8421428;28;20043;-81
2022/09/28 09:11:18;;;;;;;11.50;4.68;;;;;;;10.96;91.42;97492.03;8382775;28;20052;-80
2022/09/28 09:15:46;;;;;;;6.85;4.82;;;;;;;11.15;89.22;97484.03;8409187;28;20046;-81
2022/09/28 09:20:05;;;;;;;5.88;4.40;;;;;;;11.49;89.21;97487.06;8429745;28;20127;-82
2022/09/28 09:24:15;;;;;;;5.47;3.95;;;;;;;11.71;86.69;97494.50;8428221;28;20070;-81
2022/09/28 09:28:58;;;;;;;5.82;4.03;;;;;;;11.84;84.72;97493.28;8415085;28;20122;-80
2022/09/28 09:33:27;;;;;;;8.90;4.13;;;;;;;11.66;85.37;97486.66;8247362;28;20050;-83
2022/09/28 09:37:52;;;;;;;6.63;3.70;;;;;;;11.51;87.15;97495.63;8249236;28;20059;-80
2022/09/28 09:42:23;;;;;;;5.78;3.33;;;;;;;11.34;86.06;97492.16;8250290;28;20300;-80
2022/09/28 09:46:41;;;;;;;4.10;3.30;;;;;;;11.27;86.17;97492.00;8195976;28;20036;-81
2022/09/28 09:50:49;;;;;;;7.15;3.60;;;;;;;11.16;87.45;97485.56;8196401;28;20063;-80
2022/09/28 09:54:54;;;;;;;4.13;3.13;;;;;;;11.04;87.08;97487.59;8195851;29;20051;-81
2022/09/28 09:59:02;;;;;;;7.80;3.65;;;;;;;10.94;87.49;97483.53;8195874;28;20055;-80
2022/09/28 10:03:03;;;;;;;6.22;3.28;;;;;;;10.90;87.67;97488.81;8263163;28;20045;-83
2022/09/28 10:07:05;;;;;;;7.63;2.78;;;;;;;10.95;87.29;97485.84;8308411;28;20046;-81
2022/09/28 10:11:11;;;;;;;4.05;2.20;;;;;;;11.12;87.01;97490.09;8308718;28;20049;-80
2022/09/28 10:15:15;;;;;;;3.47;2.25;;;;;;;11.29;85.85;97489.75;8324631;28;20110;-79
2022/09/28 10:19:18;;;;;;;7.82;2.47;;;;;;;11.37;85.05;97477.94;8395081;28;21191;-80
2022/09/28 10:23:32;;;;;;;2.83;1.98;;;;;;;11.37;84.18;97480.63;8403096;28;20489;-80
2022/09/28 10:27:35;;;;;;;4.72;2.22;;;;;;;11.42;84.39;97483.06;8424036;28;20122;-81
2022/09/28 10:31:39;;;;;;;8.30;3.22;;;;;;;11.53;84.72;97477.09;8426759;28;20060;-80
2022/09/28 10:35:41;;;;;;;4.85;3.17;;;;;;;11.59;83.57;97481.09;8409151;28;20052;-80
2022/09/28 10:39:49;;;;;;;6.63;2.95;;;;;;;11.68;83.46;97479.00;8427770;28;20051;-81
2022/09/28 10:44:05;;;;;;;4.57;1.90;;;;;;;11.67;82.73;97482.84;8413936;28;20132;-81
2022/09/28 10:48:15;;;;;;;2.13;1.65;;;;;;;11.67;81.63;97493.66;8426572;28;20089;-83
2022/09/28 10:52:37;;;;;;;3.05;1.60;;;;;;;11.63;79.79;97487.38;8426814;28;20119;-80
2022/09/28 10:56:39;;;;;;;17.60;5.05;;;;;;;11.64;80.20;97484.31;8412737;28;20047;-80
2022/09/28 11:00:41;;;;;;;4.93;1.52;;;;;;;11.74;81.05;97488.41;8424304;28;20059;-81
2022/09/28 11:04:50;;;;;;;3.97;1.88;;;;;;;11.77;81.85;97482.28;8434175;28;20083;-80
2022/09/28 11:08:51;;;;;;;6.87;2.93;;;;;;;11.76;82.17;97475.31;8432857;28;20046;-81
2022/09/28 11:12:53;;;;;;;2.70;1.50;;;;;;;11.78;81.35;97473.06;8433886;28;20079;-81
2022/09/28 11:17:28;;;;;;;7.95;2.97;;;;;;;11.75;81.17;97462.94;8395488;28;20044;-81
2022/09/28 11:21:31;;;;;;;5.07;1.00;;;;;;;11.60;79.99;97471.84;8395899;28;20488;-81
2022/09/28 11:25:32;;;;;;;1.60;0.90;;;;;;;11.53;78.50;97466.28;8398947;28;20131;-79
2022/09/28 11:29:43;;;;;;;2.08;1.00;;;;;;;11.52;78.28;97470.16;8404788;28;20122;-83
2022/09/28 11:33:45;;;;;;;3.67;0.98;;;;;;;11.23;78.75;97496.53;8393769;28;20501;-82
2022/09/28 11:37:46;;;;;;;1.70;1.00;;;;;;;10.76;81.45;97503.91;8399475;28;20135;-81
2022/09/28 11:41:56;;;;;;;1.70;0.73;;;;;;;10.31;83.64;97496.97;8406876;28;20086;-82
2022/09/28 11:46:05;;;;;;;3.92;0.70;;;;;;;10.14;85.15;97499.97;8380107;28;20417;-81
2022/09/28 11:50:17;;;;;;;;;;;;;;;10.04;85.90;97500.47;8408963;28;20048;-83
2022/09/28 11:54:32;;;;;;;2.45;0.70;;;;;;;9.94;87.00;97503.66;8273358;28;19921;-82
2022/09/28 11:58:54;;;;;;;1.90;0.80;;;;;;;9.81;88.08;97502.09;8341647;28;20672;-82
2022/09/28 12:03:12;;;;;;;3.35;0.88;;;;;;;9.71;89.11;97498.78;8338151;28;20071;-82
2022/09/28 12:07:22;;;;;;;2.47;0.90;;;;;;;9.72;89.61;97503.03;8344310;28;20555;-83
2022/09/28 12:11:38;;;;;;;3.90;1.17;;;;;;;9.71;90.33;97509.56;8345270;28;20126;-82
2022/09/28 12:15:45;;;;;;;1.80;0.90;;;;;;;9.67;90.99;97513.28;8300342;28;20053;-82
2022/09/28 12:20:04;;;;;;;3.20;0.88;;;;;;;9.64;91.11;97503.94;8328986;28;20116;-81
2022/09/28 12:24:14;;;;;;;1.73;0.85;;;;;;;9.65;91.45;97494.75;8343731;28;20060;-82
2022/09/28 12:28:25;;;;;;;3.70;1.45;;;;;;;9.63;91.95;97478.13;8395856;28;20531;-82
2022/09/28 12:32:36;;;;;;;1.15;0.70;;;;;;;9.59;92.16;97485.31;8397347;28;20053;-83
2022/09/28 12:36:51;;;;;;;4.40;0.90;;;;;;;9.62;92.68;97479.25;8397761;28;20042;-83
2022/09/28 12:40:56;;;;;;;14.75;1.52;;;;;;;9.70;92.73;97475.63;8401208;28;20048;-83
2022/09/28 12:44:57;;;;;;;10.45;1.20;;;;;;;9.79;92.72;97466.59;8392327;28;20119;-83
2022/09/28 12:49:23;;;;;;;7.95;2.85;;;;;;;9.81;92.60;97464.38;8397454;28;20044;-83
2022/09/28 12:53:28;;;;;;;1.83;1.02;;;;;;;9.81;92.61;97458.97;8392629;28;20137;-83
2022/09/28 12:57:40;;;;;;;3.20;1.35;;;;;;;9.80;92.77;97458.19;8400870;28;20041;-83
2022/09/28 13:01:47;;;;;;;2.60;1.00;;;;;;;9.81;93.12;97456.28;8395538;28;20078;-83
2022/09/28 13:05:56;;;;;;;7.05;1.30;;;;;;;9.84;93.39;97448.28;8402521;28;20044;-83
2022/09/28 13:10:06;;;;;;;20.30;7.78;;;;;;;9.87;93.64;97430.63;8415962;28;20048;-83
2022/09/28 13:14:51;;;;;;;34.10;11.90;;;;;;;9.93;94.11;97429.28;8426559;28;20049;-83
2022/09/28 13:19:30;;;;;;;47.33;19.88;;;;;;;9.93;93.72;97418.47;8424341;28;20397;-83
2022/09/28 13:23:43;;;;;;;35.72;14.23;;;;;;;9.95;93.91;97421.59;8429772;28;20036;-83
2022/09/28 13:27:49;;;;;;;16.77;7.68;;;;;;;9.94;94.00;97425.44;8414074;28;20043;-83
2022/09/28 13:31:56;;;;;;;77.85;24.80;;;;;;;9.92;94.52;97422.31;8428440;28;20063;-82
2022/09/28 13:35:58;;;;;;;49.28;13.70;;;;;;;9.99;94.49;97422.50;8426632;28;20516;-82
2022/09/28 13:40:04;;;;;;;54.10;15.40;;;;;;;10.04;94.53;97419.56;8416898;28;20052;-83
2022/09/28 13:44:15;;;;;;;14.40;4.20;;;;;;;10.03;94.74;97434.16;8402254;28;20047;-82
2022/09/28 13:48:19;;;;;;;16.40;6.60;;;;;;;10.04;94.55;97430.34;8422806;28;20437;-83
2022/09/28 13:52:46;;;;;;;4.38;2.42;;;;;;;9.98;94.91;97416.31;8382996;28;20044;-82
2022/09/28 13:57:22;;;;;;;5.72;2.65;;;;;;;9.95;95.46;97416.22;8346655;28;20044;-82
2022/09/28 14:01:43;;;;;;;7.22;3.40;;;;;;;10.00;95.45;97402.47;8259455;28;20554;-81
2022/09/28 14:06:09;;;;;;;8.60;2.65;;;;;;;10.03;95.48;97407.19;8241532;28;20539;-81
2022/09/28 14:10:19;;;;;;;21.92;10.50;;;;;;;10.13;95.40;97409.38;8241692;28;20489;-82
2022/09/28 14:14:28;;;;;;;10.10;3.72;;;;;;;10.29;95.06;97399.41;8220358;28;20054;-83
2022/09/28 14:18:32;;;;;;;4.93;2.25;;;;;;;10.35;94.78;97403.41;8260283;28;20073;-83
2022/09/28 14:22:42;;;;;;;10.52;4.78;;;;;;;10.32;94.78;97398.72;8246506;28;20510;-80
2022/09/28 14:26:55;;;;;;;15.32;7.22;;;;;;;10.29;94.69;97399.41;8259902;28;20484;-82
2022/09/28 14:30:56;;;;;;;16.67;8.32;;;;;;;10.26;94.86;97397.41;8322638;28;20080;-82
2022/09/28 14:35:05;;;;;;;16.83;7.20;;;;;;;10.15;95.17;97399.03;8324629;28;20045;-83
2022/09/28 14:43:44;;;;;;;27.02;13.50;;;;;;;10.00;96.03;97407.88;8406006;28;20093;-82
2022/09/28 14:48:09;;;;;;;27.67;10.85;;;;;;;9.95;96.29;97405.41;8398539;28;20049;-82
2022/09/28 14:52:11;;;;;;;15.98;9.15;;;;;;;9.96;96.46;97396.22;8411422;28;20446;-82
2022/09/28 14:56:13;;;;;;;23.33;12.38;;;;;;;9.97;96.48;97403.16;8413875;28;20110;-82
2022/09/28 15:00:19;;;;;;;17.55;11.00;;;;;;;9.97;96.69;97397.78;8393465;28;20469;-81
2022/09/28 15:04:21;;;;;;;20.90;10.55;;;;;;;9.97;96.98;97392.38;8408967;28;20049;-81
2022/09/28 15:08:35;;;;;;;22.27;10.98;;;;;;;9.95;97.05;97400.03;8420363;28;20393;-81
2022/09/28 15:12:35;;;;;;;23.13;10.13;;;;;;;9.93;97.25;97396.91;8416637;28;20547;-81
2022/09/28 15:16:36;;;;;;;16.60;9.57;;;;;;;9.99;97.40;97390.91;8427529;28;20048;-81
2022/09/28 15:20:40;;;;;;;35.60;14.27;;;;;;;10.16;97.35;97384.44;8416891;28;20139;-81
2022/09/28 15:24:56;;;;;;;25.08;12.27;;;;;;;10.35;97.11;97381.84;8387873;28;20036;-81
2022/09/28 15:28:58;;;;;;;19.83;11.20;;;;;;;10.50;96.77;97391.84;8400353;28;20041;-80
2022/09/28 15:37:23;;;;;;;14.68;8.68;;;;;;;10.69;96.29;97379.53;8396180;28;20482;-81
2022/09/28 15:41:25;;;;;;;15.27;9.52;;;;;;;10.59;96.82;97392.44;8393423;28;20045;-82
2022/09/28 15:45:36;;;;;;;30.95;14.10;;;;;;;10.49;97.42;97392.97;8413346;28;20134;-84
2022/09/28 15:49:42;;;;;;;37.72;16.35;;;;;;;10.39;97.74;97398.88;8426261;28;20113;-81
2022/09/28 15:54:01;;;;;;;18.92;9.10;;;;;;;10.26;98.70;97405.50;8413204;28;20048;-82
2022/09/28 15:58:16;;;;;;;13.93;7.68;;;;;;;10.14;99.31;97413.66;8379024;28;20044;-81
2022/09/28 16:02:22;;;;;;;8.07;4.80;;;;;;;10.05;99.91;97415.69;8428664;28;20036;-82
2022/09/28 16:06:24;;;;;;;8.15;5.15;;;;;;;9.98;100.00;97420.94;8369887;28;20075;-82
2022/09/28 16:10:32;;;;;;;10.73;4.63;;;;;;;9.88;100.00;97426.81;8398380;28;20049;-83
2022/09/28 16:14:34;;;;;;;8.68;4.72;;;;;;;9.79;100.00;97434.25;8398917;28;20463;-81
2022/09/28 16:18:38;;;;;;;6.90;4.30;;;;;;;9.68;100.00;97440.13;8393537;28;20049;-81
2022/09/28 16:22:41;;;;;;;8.98;4.78;;;;;;;9.62;100.00;97446.91;8395759;28;20493;-82
2022/09/28 16:26:42;;;;;;;8.52;4.78;;;;;;;9.55;100.00;97441.31;8377355;28;20090;-81
2022/09/28 16:31:00;;;;;;;10.40;5.45;;;;;;;9.50;100.00;97449.66;8378502;28;20047;-81
2022/09/28 16:35:10;;;;;;;10.95;5.60;;;;;;;9.41;100.00;97440.91;8396291;28;20080;-81
2022/09/28 16:39:12;;;;;;;11.18;5.57;;;;;;;9.44;100.00;97450.22;8408079;28;20143;-82
2022/09/28 16:43:39;;;;;;;12.00;6.18;;;;;;;9.46;100.00;97448.78;8396963;28;20144;-81
2022/09/28 16:47:40;;;;;;;11.77;6.55;;;;;;;9.50;100.00;97460.44;8277662;28;20056;-81
2022/09/28 16:51:41;;;;;;;7.22;4.75;;;;;;;9.52;100.00;97458.16;8285648;28;20042;-81
2022/09/28 16:55:43;;;;;;;8.98;5.60;;;;;;;9.56;100.00;97460.97;8293388;28;20469;-81
2022/09/28 16:59:44;;;;;;;8.93;4.85;;;;;;;9.57;100.00;97466.00;8295579;28;20494;-81
2022/09/28 17:03:47;;;;;;;10.90;4.50;;;;;;;9.61;100.00;97472.31;8315758;28;20057;-82
2022/09/28 17:08:01;;;;;;;9.43;4.75;;;;;;;9.63;100.00;97459.25;8300154;28;20050;-80
2022/09/28 17:12:09;;;;;;;8.13;3.72;;;;;;;9.65;100.00;97459.69;8317140;28;20045;-81
2022/09/28 17:16:16;;;;;;;5.88;3.72;;;;;;;9.65;100.00;97473.19;8279398;28;20057;-81
2022/09/28 17:20:25;;;;;;;6.28;3.08;;;;;;;9.62;100.00;97467.69;8277836;28;20046;-80
2022/09/28 17:24:25;;;;;;;7.30;3.00;;;;;;;9.57;100.00;97474.09;8382677;28;20056;-80
2022/09/28 17:28:34;;;;;;;7.13;3.00;;;;;;;9.52;100.00;97474.31;8409896;28;20096;-81
2022/09/28 17:32:36;;;;;;;9.07;3.63;;;;;;;9.52;100.00;97477.03;8393205;28;20053;-80
2022/09/28 17:36:39;;;;;;;10.35;4.25;;;;;;;9.53;100.00;97486.69;8414307;28;20493;-80
2022/09/28 17:40:41;;;;;;;14.13;5.05;;;;;;;9.52;100.00;97485.09;8396264;28;20039;-80
2022/09/28 17:44:42;;;;;;;8.45;4.40;;;;;;;9.52;100.00;97485.09;8399011;28;20047;-81
2022/09/28 17:48:45;;;;;;;7.40;3.78;;;;;;;9.50;100.00;97495.47;8429041;28;20044;-81
2022/09/28 17:52:51;;;;;;;7.78;3.58;;;;;;;9.49;100.00;97501.19;8397757;28;20117;-81
2022/09/28 17:56:52;;;;;;;7.72;4.35;;;;;;;9.44;100.00;97504.91;8396850;28;20124;-81
2022/09/28 18:00:53;;;;;;;14.18;4.38;;;;;;;9.36;100.00;97505.03;8428459;28;20062;-81
2022/09/28 18:04:54;;;;;;;10.32;4.50;;;;;;;9.27;100.00;97505.13;8400928;28;20044;-80
2022/09/28 18:08:54;;;;;;;12.30;5.13;;;;;;;9.22;100.00;97510.75;8414334;28;20127;-81
2022/09/28 18:12:56;;;;;;;9.73;5.72;;;;;;;9.24;100.00;97517.38;8427226;28;20044;-81
2022/09/28 18:16:59;;;;;;;10.55;6.38;;;;;;;9.28;100.00;97525.56;8380163;28;20060;-80
2022/09/28 18:21:00;;;;;;;10.35;5.65;;;;;;;9.32;100.00;97534.53;8400953;28;20059;-80
2022/09/28 18:25:02;;;;;;;9.25;5.55;;;;;;;9.32;100.00;97534.53;8418782;28;20055;-81
2022/09/28 18:29:03;;;;;;;10.45;5.60;;;;;;;9.28;100.00;97533.66;8396464;28;20635;-80
2022/09/28 18:33:04;;;;;;;9.45;5.38;;;;;;;9.23;100.00;97541.97;8416625;28;20052;-79
2022/09/28 18:37:05;;;;;;;10.80;5.50;;;;;;;9.17;100.00;97554.88;8400934;28;20051;-79
2022/09/28 18:41:14;;;;;;;10.43;6.00;;;;;;;9.09;100.00;97563.06;8393033;28;20486;-79
2022/09/28 18:45:17;;;;;;;15.20;6.55;;;;;;;8.98;100.00;97567.31;8391362;28;20044;-80
2022/09/28 18:49:18;;;;;;;12.68;6.88;;;;;;;8.87;100.00;97562.38;8375974;28;20041;-79
2022/09/28 18:53:19;;;;;;;14.57;7.30;;;;;;;8.81;100.00;97574.47;8387483;28;20493;-79
2022/09/28 18:57:21;;;;;;;18.20;8.55;;;;;;;8.74;100.00;97571.53;8389301;28;20044;-80
2022/09/28 19:01:22;;;;;;;15.35;8.05;;;;;;;8.65;100.00;97581.59;8380306;28;20139;-80
2022/09/28 19:05:25;;;;;;;13.80;7.85;;;;;;;8.60;100.00;97581.81;8388735;28;20927;-80
2022/09/28 19:09:27;;;;;;;12.40;7.43;;;;;;;8.55;100.00;97590.09;8401602;28;20476;-79
2022/09/28 19:13:29;;;;;;;16.55;8.32;;;;;;;8.49;100.00;97583.34;8401452;28;20048;-80
2022/09/28 19:17:31;;;;;;;15.27;8.57;;;;;;;8.43;100.00;97590.06;8362141;28;20121;-80
2022/09/28 19:21:33;;;;;;;18.30;9.20;;;;;;;8.41;100.00;97597.66;8386408;28;20078;-79
2022/09/28 19:25:34;;;;;;;19.65;9.93;;;;;;;8.37;100.00;97597.53;8394672;28;20040;-80
2022/09/28 19:29:35;;;;;;;17.63;9.52;;;;;;;8.32;100.00;97605.03;8393455;28;20053;-79